sensor_id;sensor_type;location;lat;lon;timestamp;P1;durP1;ratioP1;P2;durP2;ratioP2
35462;SDS011;21578;47.892;9.970;2023-02-08T00:04:07;9.40;;;5.93;;
35462;SDS011;21578;47.892;9.970;2023-02-08T00:08:55;13.17;;;6.90;;
35462;SDS011;21578;47.892;9.970;2023-02-08T00:13:42;8.57;;;5.60;;
35462;SDS011;21578;47.892;9.970;2023-02-08T00:18:29;12.87;;;7.43;;
35462;SDS011;21578;47.892;9.970;2023-02-08T00:23:16;10.83;;;7.47;;
35462;SDS011;21578;47.892;9.970;2023-02-08T00:28:05;9.77;;;5.87;;
35462;SDS011;21578;47.892;9.970;2023-02-08T00:32:52;13.27;;;8.37;;
35462;SDS011;21578;47.892;9.970;2023-02-08T00:37:40;10.27;;;6.57;;
35462;SDS011;21578;47.892;9.970;2023-02-08T00:42:27;9.87;;;6.03;;
35462;SDS011;21578;47.892;9.970;2023-02-08T00:47:16;8.97;;;5.53;;
35462;SDS011;21578;47.892;9.970;2023-02-08T00:52:03;8.63;;;5.37;;
35462;SDS011;21578;47.892;9.970;2023-02-08T00:56:50;10.70;;;5.57;;
35462;SDS011;21578;47.892;9.970;2023-02-08T01:01:38;8.67;;;5.83;;
35462;SDS011;21578;47.892;9.970;2023-02-08T01:06:26;10.50;;;5.97;;
35462;SDS011;21578;47.892;9.970;2023-02-08T01:11:14;7.77;;;4.77;;
35462;SDS011;21578;47.892;9.970;2023-02-08T01:16:06;7.67;;;5.10;;
35462;SDS011;21578;47.892;9.970;2023-02-08T01:20:54;9.17;;;5.37;;
35462;SDS011;21578;47.892;9.970;2023-02-08T01:25:43;10.10;;;5.73;;
35462;SDS011;21578;47.892;9.970;2023-02-08T01:30:30;8.60;;;5.10;;
35462;SDS011;21578;47.892;9.970;2023-02-08T01:35:17;9.83;;;5.23;;
35462;SDS011;21578;47.892;9.970;2023-02-08T01:40:05;8.73;;;5.37;;
35462;SDS011;21578;47.892;9.970;2023-02-08T01:50:10;9.70;;;5.40;;
35462;SDS011;21578;47.892;9.970;2023-02-08T01:55:00;8.87;;;5.20;;
35462;SDS011;21578;47.892;9.970;2023-02-08T01:59:52;8.03;;;4.87;;
35462;SDS011;21578;47.892;9.970;2023-02-08T02:04:43;8.87;;;5.40;;
35462;SDS011;21578;47.892;9.970;2023-02-08T02:09:32;7.70;;;4.93;;
35462;SDS011;21578;47.892;9.970;2023-02-08T02:14:25;7.93;;;4.60;;
35462;SDS011;21578;47.892;9.970;2023-02-08T02:19:14;6.57;;;4.63;;
35462;SDS011;21578;47.892;9.970;2023-02-08T02:29:26;6.97;;;3.87;;
35462;SDS011;21578;47.892;9.970;2023-02-08T02:34:25;7.87;;;5.20;;
35462;SDS011;21578;47.892;9.970;2023-02-08T02:39:19;6.57;;;4.00;;
35462;SDS011;21578;47.892;9.970;2023-02-08T02:44:13;10.43;;;5.40;;
35462;SDS011;21578;47.892;9.970;2023-02-08T02:49:08;9.30;;;5.10;;
35462;SDS011;21578;47.892;9.970;2023-02-08T02:54:05;9.50;;;5.60;;
35462;SDS011;21578;47.892;9.970;2023-02-08T02:58:57;9.17;;;5.40;;
35462;SDS011;21578;47.892;9.970;2023-02-08T03:03:49;10.20;;;5.37;;
35462;SDS011;21578;47.892;9.970;2023-02-08T03:08:49;7.77;;;4.50;;
35462;SDS011;21578;47.892;9.970;2023-02-08T03:13:59;8.00;;;5.23;;
35462;SDS011;21578;47.892;9.970;2023-02-08T03:19:05;23.37;;;12.57;;
35462;SDS011;21578;47.892;9.970;2023-02-08T03:23:55;9.53;;;5.60;;
35462;SDS011;21578;47.892;9.970;2023-02-08T03:28:47;9.23;;;5.40;;
35462;SDS011;21578;47.892;9.970;2023-02-08T03:33:46;5.13;;;2.93;;
35462;SDS011;21578;47.892;9.970;2023-02-08T03:38:38;9.30;;;4.30;;
35462;SDS011;21578;47.892;9.970;2023-02-08T03:43:28;8.00;;;4.80;;
35462;SDS011;21578;47.892;9.970;2023-02-08T03:48:19;8.90;;;4.37;;
35462;SDS011;21578;47.892;9.970;2023-02-08T03:53:10;4.83;;;2.73;;
35462;SDS011;21578;47.892;9.970;2023-02-08T03:58:00;8.63;;;5.07;;
35462;SDS011;21578;47.892;9.970;2023-02-08T04:02:52;5.17;;;3.23;;
35462;SDS011;21578;47.892;9.970;2023-02-08T04:07:42;6.73;;;4.10;;
35462;SDS011;21578;47.892;9.970;2023-02-08T04:12:30;9.07;;;4.53;;
35462;SDS011;21578;47.892;9.970;2023-02-08T04:17:17;5.10;;;3.30;;
35462;SDS011;21578;47.892;9.970;2023-02-08T04:22:05;5.80;;;3.43;;
35462;SDS011;21578;47.892;9.970;2023-02-08T04:26:52;8.63;;;4.90;;
35462;SDS011;21578;47.892;9.970;2023-02-08T04:31:40;8.63;;;4.73;;
35462;SDS011;21578;47.892;9.970;2023-02-08T04:36:27;9.77;;;5.20;;
35462;SDS011;21578;47.892;9.970;2023-02-08T04:41:14;8.80;;;4.60;;
35462;SDS011;21578;47.892;9.970;2023-02-08T04:46:02;8.73;;;4.77;;
35462;SDS011;21578;47.892;9.970;2023-02-08T04:50:50;7.37;;;3.93;;
35462;SDS011;21578;47.892;9.970;2023-02-08T04:55:40;7.73;;;4.53;;
35462;SDS011;21578;47.892;9.970;2023-02-08T05:00:27;6.27;;;4.20;;
35462;SDS011;21578;47.892;9.970;2023-02-08T05:05:15;7.50;;;3.13;;
35462;SDS011;21578;47.892;9.970;2023-02-08T05:10:04;7.30;;;4.27;;
35462;SDS011;21578;47.892;9.970;2023-02-08T05:14:51;8.20;;;4.60;;
35462;SDS011;21578;47.892;9.970;2023-02-08T05:19:38;6.77;;;4.00;;
35462;SDS011;21578;47.892;9.970;2023-02-08T05:24:30;5.43;;;3.37;;
35462;SDS011;21578;47.892;9.970;2023-02-08T05:29:21;6.17;;;3.17;;
35462;SDS011;21578;47.892;9.970;2023-02-08T05:34:08;9.83;;;5.60;;
35462;SDS011;21578;47.892;9.970;2023-02-08T05:38:56;8.27;;;4.70;;
35462;SDS011;21578;47.892;9.970;2023-02-08T05:43:43;11.80;;;5.33;;
35462;SDS011;21578;47.892;9.970;2023-02-08T05:48:32;8.57;;;4.63;;
35462;SDS011;21578;47.892;9.970;2023-02-08T05:53:19;9.83;;;4.67;;
35462;SDS011;21578;47.892;9.970;2023-02-08T05:58:06;6.93;;;4.63;;
35462;SDS011;21578;47.892;9.970;2023-02-08T06:02:53;9.03;;;4.63;;
35462;SDS011;21578;47.892;9.970;2023-02-08T06:07:43;9.23;;;5.57;;
35462;SDS011;21578;47.892;9.970;2023-02-08T06:12:30;9.10;;;5.20;;
35462;SDS011;21578;47.892;9.970;2023-02-08T06:17:17;8.13;;;5.53;;
35462;SDS011;21578;47.892;9.970;2023-02-08T06:22:05;7.70;;;4.77;;
35462;SDS011;21578;47.892;9.970;2023-02-08T06:26:53;6.67;;;4.10;;
35462;SDS011;21578;47.892;9.970;2023-02-08T06:31:40;8.43;;;4.47;;
35462;SDS011;21578;47.892;9.970;2023-02-08T06:36:27;11.53;;;5.70;;
35462;SDS011;21578;47.892;9.970;2023-02-08T06:41:15;8.30;;;4.93;;
35462;SDS011;21578;47.892;9.970;2023-02-08T06:46:03;4.67;;;3.17;;
35462;SDS011;21578;47.892;9.970;2023-02-08T06:50:52;10.07;;;5.87;;
35462;SDS011;21578;47.892;9.970;2023-02-08T06:55:39;12.03;;;6.57;;
35462;SDS011;21578;47.892;9.970;2023-02-08T07:00:27;10.57;;;6.27;;
35462;SDS011;21578;47.892;9.970;2023-02-08T07:05:16;8.43;;;5.93;;
35462;SDS011;21578;47.892;9.970;2023-02-08T07:10:03;10.43;;;6.50;;
35462;SDS011;21578;47.892;9.970;2023-02-08T07:14:51;12.20;;;7.00;;
35462;SDS011;21578;47.892;9.970;2023-02-08T07:19:38;9.00;;;6.03;;
35462;SDS011;21578;47.892;9.970;2023-02-08T07:24:26;10.40;;;6.30;;
35462;SDS011;21578;47.892;9.970;2023-02-08T07:29:13;11.90;;;6.80;;
35462;SDS011;21578;47.892;9.970;2023-02-08T07:34:00;15.03;;;7.67;;
35462;SDS011;21578;47.892;9.970;2023-02-08T07:38:48;10.13;;;6.47;;
35462;SDS011;21578;47.892;9.970;2023-02-08T07:43:37;9.30;;;6.30;;
35462;SDS011;21578;47.892;9.970;2023-02-08T07:48:25;15.40;;;6.53;;
35462;SDS011;21578;47.892;9.970;2023-02-08T07:53:12;12.20;;;6.70;;
35462;SDS011;21578;47.892;9.970;2023-02-08T07:58:00;7.43;;;5.30;;
35462;SDS011;21578;47.892;9.970;2023-02-08T08:02:48;10.20;;;6.57;;
35462;SDS011;21578;47.892;9.970;2023-02-08T08:07:35;9.97;;;5.57;;
35462;SDS011;21578;47.892;9.970;2023-02-08T08:12:23;10.50;;;6.50;;
35462;SDS011;21578;47.892;9.970;2023-02-08T08:17:10;11.37;;;6.80;;
35462;SDS011;21578;47.892;9.970;2023-02-08T08:21:58;9.73;;;6.30;;
35462;SDS011;21578;47.892;9.970;2023-02-08T08:26:45;9.57;;;5.93;;
35462;SDS011;21578;47.892;9.970;2023-02-08T08:31:32;12.20;;;7.30;;
35462;SDS011;21578;47.892;9.970;2023-02-08T08:36:20;16.07;;;9.10;;
35462;SDS011;21578;47.892;9.970;2023-02-08T08:41:10;13.33;;;6.77;;
35462;SDS011;21578;47.892;9.970;2023-02-08T08:45:58;17.07;;;9.53;;
35462;SDS011;21578;47.892;9.970;2023-02-08T08:50:45;13.37;;;6.63;;
35462;SDS011;21578;47.892;9.970;2023-02-08T08:55:32;11.20;;;6.27;;
35462;SDS011;21578;47.892;9.970;2023-02-08T09:00:21;9.03;;;6.10;;
35462;SDS011;21578;47.892;9.970;2023-02-08T09:05:08;10.93;;;6.17;;
35462;SDS011;21578;47.892;9.970;2023-02-08T09:09:55;9.83;;;6.60;;
35462;SDS011;21578;47.892;9.970;2023-02-08T09:14:42;9.73;;;6.37;;
35462;SDS011;21578;47.892;9.970;2023-02-08T09:19:31;11.13;;;6.43;;
35462;SDS011;21578;47.892;9.970;2023-02-08T09:24:18;12.27;;;7.07;;
35462;SDS011;21578;47.892;9.970;2023-02-08T09:29:05;15.57;;;5.87;;
35462;SDS011;21578;47.892;9.970;2023-02-08T09:33:53;7.47;;;4.40;;
35462;SDS011;21578;47.892;9.970;2023-02-08T09:38:43;12.50;;;7.33;;
35462;SDS011;21578;47.892;9.970;2023-02-08T09:43:33;12.23;;;6.77;;
35462;SDS011;21578;47.892;9.970;2023-02-08T09:48:30;9.80;;;6.33;;
35462;SDS011;21578;47.892;9.970;2023-02-08T09:53:22;12.90;;;7.10;;
35462;SDS011;21578;47.892;9.970;2023-02-08T09:58:20;10.67;;;6.40;;
35462;SDS011;21578;47.892;9.970;2023-02-08T10:03:18;12.47;;;5.97;;
35462;SDS011;21578;47.892;9.970;2023-02-08T10:08:17;8.77;;;5.77;;
35462;SDS011;21578;47.892;9.970;2023-02-08T10:13:08;10.53;;;6.07;;
35462;SDS011;21578;47.892;9.970;2023-02-08T10:18:10;18.17;;;6.50;;
35462;SDS011;21578;47.892;9.970;2023-02-08T10:23:23;13.83;;;6.27;;
35462;SDS011;21578;47.892;9.970;2023-02-08T10:28:45;10.53;;;5.87;;
35462;SDS011;21578;47.892;9.970;2023-02-08T10:33:57;10.03;;;5.37;;
35462;SDS011;21578;47.892;9.970;2023-02-08T10:38:48;6.60;;;4.77;;
35462;SDS011;21578;47.892;9.970;2023-02-08T10:43:38;21.23;;;6.43;;
35462;SDS011;21578;47.892;9.970;2023-02-08T10:48:33;11.83;;;5.33;;
35462;SDS011;21578;47.892;9.970;2023-02-08T10:53:28;9.63;;;5.07;;
35462;SDS011;21578;47.892;9.970;2023-02-08T10:58:16;14.77;;;6.43;;
35462;SDS011;21578;47.892;9.970;2023-02-08T11:03:11;9.00;;;5.13;;
35462;SDS011;21578;47.892;9.970;2023-02-08T11:08:05;6.77;;;4.77;;
35462;SDS011;21578;47.892;9.970;2023-02-08T11:12:57;8.53;;;6.27;;
35462;SDS011;21578;47.892;9.970;2023-02-08T11:17:51;13.13;;;7.17;;
35462;SDS011;21578;47.892;9.970;2023-02-08T11:22:40;9.40;;;5.67;;
35462;SDS011;21578;47.892;9.970;2023-02-08T11:27:32;9.70;;;4.70;;
35462;SDS011;21578;47.892;9.970;2023-02-08T11:32:22;10.77;;;4.83;;
35462;SDS011;21578;47.892;9.970;2023-02-08T11:37:13;9.67;;;4.97;;
35462;SDS011;21578;47.892;9.970;2023-02-08T11:42:03;10.53;;;5.53;;
35462;SDS011;21578;47.892;9.970;2023-02-08T11:46:51;6.57;;;4.90;;
35462;SDS011;21578;47.892;9.970;2023-02-08T11:51:41;6.93;;;4.07;;
35462;SDS011;21578;47.892;9.970;2023-02-08T11:56:31;10.77;;;5.20;;
35462;SDS011;21578;47.892;9.970;2023-02-08T12:01:19;17.07;;;5.30;;
35462;SDS011;21578;47.892;9.970;2023-02-08T12:06:12;8.43;;;4.33;;
35462;SDS011;21578;47.892;9.970;2023-02-08T12:11:15;11.17;;;4.37;;
35462;SDS011;21578;47.892;9.970;2023-02-08T12:16:09;14.50;;;4.67;;
35462;SDS011;21578;47.892;9.970;2023-02-08T12:21:06;10.10;;;4.40;;
35462;SDS011;21578;47.892;9.970;2023-02-08T12:26:00;5.00;;;3.27;;
35462;SDS011;21578;47.892;9.970;2023-02-08T12:30:59;5.23;;;3.40;;
35462;SDS011;21578;47.892;9.970;2023-02-08T12:35:56;4.57;;;3.30;;
35462;SDS011;21578;47.892;9.970;2023-02-08T12:40:54;9.63;;;4.10;;
35462;SDS011;21578;47.892;9.970;2023-02-08T12:46:00;5.03;;;3.43;;
35462;SDS011;21578;47.892;9.970;2023-02-08T12:51:08;4.90;;;3.07;;
35462;SDS011;21578;47.892;9.970;2023-02-08T12:56:05;4.73;;;3.10;;
35462;SDS011;21578;47.892;9.970;2023-02-08T13:01:04;6.83;;;4.83;;
35462;SDS011;21578;47.892;9.970;2023-02-08T13:05:56;7.57;;;5.07;;
35462;SDS011;21578;47.892;9.970;2023-02-08T13:10:44;4.03;;;2.73;;
35462;SDS011;21578;47.892;9.970;2023-02-08T13:15:38;4.50;;;3.20;;
35462;SDS011;21578;47.892;9.970;2023-02-08T13:20:35;6.43;;;3.47;;
35462;SDS011;21578;47.892;9.970;2023-02-08T13:25:28;6.97;;;3.83;;
35462;SDS011;21578;47.892;9.970;2023-02-08T13:30:18;9.00;;;5.13;;
35462;SDS011;21578;47.892;9.970;2023-02-08T13:35:10;4.90;;;3.40;;
35462;SDS011;21578;47.892;9.970;2023-02-08T13:40:04;6.60;;;5.40;;
35462;SDS011;21578;47.892;9.970;2023-02-08T13:44:54;5.90;;;3.97;;
35462;SDS011;21578;47.892;9.970;2023-02-08T13:49:51;9.97;;;4.67;;
35462;SDS011;21578;47.892;9.970;2023-02-08T13:54:40;6.67;;;5.03;;
35462;SDS011;21578;47.892;9.970;2023-02-08T13:59:33;9.63;;;4.70;;
35462;SDS011;21578;47.892;9.970;2023-02-08T14:04:29;11.10;;;5.77;;
35462;SDS011;21578;47.892;9.970;2023-02-08T14:09:21;11.90;;;5.47;;
35462;SDS011;21578;47.892;9.970;2023-02-08T14:14:14;9.80;;;5.63;;
35462;SDS011;21578;47.892;9.970;2023-02-08T14:19:19;10.83;;;5.77;;
35462;SDS011;21578;47.892;9.970;2023-02-08T14:24:18;9.37;;;5.77;;
35462;SDS011;21578;47.892;9.970;2023-02-08T14:29:07;20.47;;;6.70;;
35462;SDS011;21578;47.892;9.970;2023-02-08T14:34:14;10.63;;;6.43;;
35462;SDS011;21578;47.892;9.970;2023-02-08T14:39:21;10.90;;;6.57;;
35462;SDS011;21578;47.892;9.970;2023-02-08T14:49:42;13.70;;;5.93;;
35462;SDS011;21578;47.892;9.970;2023-02-08T14:54:31;10.30;;;6.60;;
35462;SDS011;21578;47.892;9.970;2023-02-08T14:59:24;9.13;;;4.83;;
35462;SDS011;21578;47.892;9.970;2023-02-08T15:04:14;10.30;;;6.33;;
35462;SDS011;21578;47.892;9.970;2023-02-08T15:09:05;9.40;;;6.03;;
35462;SDS011;21578;47.892;9.970;2023-02-08T15:13:59;10.13;;;6.43;;
35462;SDS011;21578;47.892;9.970;2023-02-08T15:18:49;16.60;;;9.47;;
35462;SDS011;21578;47.892;9.970;2023-02-08T15:23:37;15.50;;;9.63;;
35462;SDS011;21578;47.892;9.970;2023-02-08T15:28:26;13.77;;;7.70;;
35462;SDS011;21578;47.892;9.970;2023-02-08T15:33:14;13.97;;;7.30;;
35462;SDS011;21578;47.892;9.970;2023-02-08T15:38:03;11.10;;;7.50;;
35462;SDS011;21578;47.892;9.970;2023-02-08T15:43:01;13.27;;;6.73;;
35462;SDS011;21578;47.892;9.970;2023-02-08T15:47:51;11.00;;;7.40;;
35462;SDS011;21578;47.892;9.970;2023-02-08T15:52:39;17.33;;;8.20;;
35462;SDS011;21578;47.892;9.970;2023-02-08T15:57:33;10.57;;;7.10;;
35462;SDS011;21578;47.892;9.970;2023-02-08T16:02:26;12.20;;;7.67;;
35462;SDS011;21578;47.892;9.970;2023-02-08T16:07:20;13.43;;;7.80;;
35462;SDS011;21578;47.892;9.970;2023-02-08T16:12:12;13.37;;;8.30;;
35462;SDS011;21578;47.892;9.970;2023-02-08T16:22:24;11.90;;;7.80;;
35462;SDS011;21578;47.892;9.970;2023-02-08T16:27:17;18.20;;;9.67;;
35462;SDS011;21578;47.892;9.970;2023-02-08T16:32:17;12.27;;;7.97;;
35462;SDS011;21578;47.892;9.970;2023-02-08T16:37:18;13.10;;;8.03;;
35462;SDS011;21578;47.892;9.970;2023-02-08T16:42:29;17.50;;;8.43;;
35462;SDS011;21578;47.892;9.970;2023-02-08T16:47:27;15.43;;;8.67;;
35462;SDS011;21578;47.892;9.970;2023-02-08T16:52:21;13.77;;;8.83;;
35462;SDS011;21578;47.892;9.970;2023-02-08T16:57:08;13.87;;;10.07;;
35462;SDS011;21578;47.892;9.970;2023-02-08T17:01:56;16.10;;;9.53;;
35462;SDS011;21578;47.892;9.970;2023-02-08T17:06:44;13.57;;;7.43;;
35462;SDS011;21578;47.892;9.970;2023-02-08T17:11:32;16.60;;;9.97;;
35462;SDS011;21578;47.892;9.970;2023-02-08T17:16:21;13.40;;;8.37;;
35462;SDS011;21578;47.892;9.970;2023-02-08T17:21:10;14.00;;;8.57;;
35462;SDS011;21578;47.892;9.970;2023-02-08T17:25:58;12.80;;;7.73;;
35462;SDS011;21578;47.892;9.970;2023-02-08T17:30:45;13.53;;;8.67;;
35462;SDS011;21578;47.892;9.970;2023-02-08T17:35:33;14.70;;;9.20;;
35462;SDS011;21578;47.892;9.970;2023-02-08T17:40:25;10.80;;;7.53;;
35462;SDS011;21578;47.892;9.970;2023-02-08T17:45:13;14.60;;;8.83;;
35462;SDS011;21578;47.892;9.970;2023-02-08T17:50:00;14.07;;;8.70;;
35462;SDS011;21578;47.892;9.970;2023-02-08T17:54:48;13.73;;;8.73;;
35462;SDS011;21578;47.892;9.970;2023-02-08T17:59:38;12.47;;;8.73;;
35462;SDS011;21578;47.892;9.970;2023-02-08T18:04:26;15.20;;;9.40;;
35462;SDS011;21578;47.892;9.970;2023-02-08T18:09:13;13.70;;;9.17;;
35462;SDS011;21578;47.892;9.970;2023-02-08T18:14:00;13.43;;;8.17;;
35462;SDS011;21578;47.892;9.970;2023-02-08T18:18:48;15.77;;;9.37;;
35462;SDS011;21578;47.892;9.970;2023-02-08T18:23:36;13.97;;;9.07;;
35462;SDS011;21578;47.892;9.970;2023-02-08T18:28:24;13.10;;;9.20;;
35462;SDS011;21578;47.892;9.970;2023-02-08T18:33:11;17.67;;;9.87;;
35462;SDS011;21578;47.892;9.970;2023-02-08T18:38:00;13.63;;;8.40;;
35462;SDS011;21578;47.892;9.970;2023-02-08T18:42:47;12.57;;;7.67;;
35462;SDS011;21578;47.892;9.970;2023-02-08T18:47:34;14.77;;;9.20;;
35462;SDS011;21578;47.892;9.970;2023-02-08T18:52:22;12.93;;;8.17;;
35462;SDS011;21578;47.892;9.970;2023-02-08T18:57:11;16.13;;;8.80;;
35462;SDS011;21578;47.892;9.970;2023-02-08T19:01:58;14.90;;;8.67;;
35462;SDS011;21578;47.892;9.970;2023-02-08T19:06:46;14.73;;;8.80;;
35462;SDS011;21578;47.892;9.970;2023-02-08T19:11:34;14.50;;;8.10;;
35462;SDS011;21578;47.892;9.970;2023-02-08T19:16:23;13.93;;;8.13;;
35462;SDS011;21578;47.892;9.970;2023-02-08T19:21:12;12.87;;;8.27;;
35462;SDS011;21578;47.892;9.970;2023-02-08T19:26:01;15.30;;;10.30;;
35462;SDS011;21578;47.892;9.970;2023-02-08T19:30:49;14.77;;;8.33;;
35462;SDS011;21578;47.892;9.970;2023-02-08T19:35:48;13.13;;;8.50;;
35462;SDS011;21578;47.892;9.970;2023-02-08T19:40:35;14.00;;;9.17;;
35462;SDS011;21578;47.892;9.970;2023-02-08T19:45:22;16.47;;;9.97;;
35462;SDS011;21578;47.892;9.970;2023-02-08T19:50:09;13.80;;;8.07;;
35462;SDS011;21578;47.892;9.970;2023-02-08T19:54:57;15.60;;;9.23;;
35462;SDS011;21578;47.892;9.970;2023-02-08T19:59:44;29.70;;;13.03;;
35462;SDS011;21578;47.892;9.970;2023-02-08T20:04:32;35.37;;;13.93;;
35462;SDS011;21578;47.892;9.970;2023-02-08T20:09:19;24.40;;;12.73;;
35462;SDS011;21578;47.892;9.970;2023-02-08T20:14:09;17.33;;;10.50;;
35462;SDS011;21578;47.892;9.970;2023-02-08T20:18:58;16.37;;;10.70;;
35462;SDS011;21578;47.892;9.970;2023-02-08T20:23:46;22.63;;;12.20;;
35462;SDS011;21578;47.892;9.970;2023-02-08T20:28:35;19.10;;;11.13;;
35462;SDS011;21578;47.892;9.970;2023-02-08T20:33:25;19.40;;;11.77;;
35462;SDS011;21578;47.892;9.970;2023-02-08T20:38:12;19.77;;;11.20;;
35462;SDS011;21578;47.892;9.970;2023-02-08T20:42:59;18.60;;;10.97;;
35462;SDS011;21578;47.892;9.970;2023-02-08T20:47:46;16.17;;;9.97;;
35462;SDS011;21578;47.892;9.970;2023-02-08T20:52:34;20.07;;;10.97;;
35462;SDS011;21578;47.892;9.970;2023-02-08T20:57:21;19.60;;;11.33;;
35462;SDS011;21578;47.892;9.970;2023-02-08T21:02:09;22.57;;;12.50;;
35462;SDS011;21578;47.892;9.970;2023-02-08T21:07:02;18.77;;;10.70;;
35462;SDS011;21578;47.892;9.970;2023-02-08T21:11:51;14.77;;;9.60;;
35462;SDS011;21578;47.892;9.970;2023-02-08T21:16:38;15.70;;;10.13;;
35462;SDS011;21578;47.892;9.970;2023-02-08T21:21:25;16.30;;;9.90;;
35462;SDS011;21578;47.892;9.970;2023-02-08T21:26:13;14.43;;;8.90;;
35462;SDS011;21578;47.892;9.970;2023-02-08T21:31:04;13.13;;;8.80;;
35462;SDS011;21578;47.892;9.970;2023-02-08T21:35:52;16.63;;;9.47;;
35462;SDS011;21578;47.892;9.970;2023-02-08T21:40:40;16.77;;;10.07;;
35462;SDS011;21578;47.892;9.970;2023-02-08T21:45:27;14.53;;;9.33;;
35462;SDS011;21578;47.892;9.970;2023-02-08T21:50:15;16.03;;;9.63;;
35462;SDS011;21578;47.892;9.970;2023-02-08T21:55:20;13.33;;;8.63;;
35462;SDS011;21578;47.892;9.970;2023-02-08T22:00:07;14.17;;;8.90;;
35462;SDS011;21578;47.892;9.970;2023-02-08T22:04:56;13.73;;;9.17;;
35462;SDS011;21578;47.892;9.970;2023-02-08T22:10:06;18.33;;;9.53;;
35462;SDS011;21578;47.892;9.970;2023-02-08T22:14:54;15.03;;;9.10;;
35462;SDS011;21578;47.892;9.970;2023-02-08T22:19:41;13.63;;;9.03;;
35462;SDS011;21578;47.892;9.970;2023-02-08T22:24:28;16.20;;;9.37;;
35462;SDS011;21578;47.892;9.970;2023-02-08T22:29:17;14.50;;;9.50;;
35462;SDS011;21578;47.892;9.970;2023-02-08T22:34:04;14.90;;;9.63;;
35462;SDS011;21578;47.892;9.970;2023-02-08T22:38:51;13.63;;;9.07;;
35462;SDS011;21578;47.892;9.970;2023-02-08T22:43:38;12.57;;;8.30;;
35462;SDS011;21578;47.892;9.970;2023-02-08T22:48:26;15.43;;;8.97;;
35462;SDS011;21578;47.892;9.970;2023-02-08T22:53:13;16.07;;;9.53;;
35462;SDS011;21578;47.892;9.970;2023-02-08T22:58:00;15.60;;;9.33;;
35462;SDS011;21578;47.892;9.970;2023-02-08T23:02:47;13.97;;;8.90;;
35462;SDS011;21578;47.892;9.970;2023-02-08T23:07:36;13.77;;;9.30;;
35462;SDS011;21578;47.892;9.970;2023-02-08T23:12:23;15.83;;;9.23;;
35462;SDS011;21578;47.892;9.970;2023-02-08T23:17:10;15.57;;;9.57;;
35462;SDS011;21578;47.892;9.970;2023-02-08T23:21:57;13.87;;;8.80;;
35462;SDS011;21578;47.892;9.970;2023-02-08T23:26:46;14.77;;;9.20;;
35462;SDS011;21578;47.892;9.970;2023-02-08T23:31:33;13.43;;;8.70;;
35462;SDS011;21578;47.892;9.970;2023-02-08T23:36:21;15.00;;;9.13;;
35462;SDS011;21578;47.892;9.970;2023-02-08T23:41:09;15.30;;;9.00;;
35462;SDS011;21578;47.892;9.970;2023-02-08T23:46:03;13.70;;;8.40;;
35462;SDS011;21578;47.892;9.970;2023-02-08T23:50:57;13.50;;;9.07;;
35462;SDS011;21578;47.892;9.970;2023-02-08T23:55:45;15.33;;;9.30;;
